Time;durP1;ratioP1;P1;durP2;ratioP2;P2;SDS_P1;SDS_P2;PMS_P1;PMS_P2;Temp;Humidity;BMP_temperature;BMP_pressure;BME280_temperature;BME280_humidity;BME280_pressure;Samples;Min_cycle;Max_cycle;Signal;HPM_P1;HPM_P2
2023/07/09 00:01:26;;;;;;;6.80;4.20;;;;;;;23.18;74.40;98468.69;4155505;28;20652;-80
2023/07/09 00:03:29;;;;;;;5.63;4.10;;;;;;;23.16;74.32;98467.25;4148581;28;20696;-81
2023/07/09 00:05:32;;;;;;;5.13;3.60;;;;;;;23.13;74.14;98467.59;4116071;28;21171;-81
2023/07/09 00:07:35;;;;;;;6.73;3.90;;;;;;;23.11;74.04;98469.56;4148849;28;20650;-80
2023/07/09 00:09:38;;;;;;;4.20;3.70;;;;;;;23.09;73.90;98466.25;4153239;28;20669;-80
2023/07/09 00:11:42;;;;;;;5.07;4.20;;;;;;;23.05;74.02;98475.56;4140497;28;20638;-81
2023/07/09 00:13:45;;;;;;;5.30;3.80;;;;;;;23.02;74.82;98482.09;4139589;28;20629;-81
2023/07/09 00:15:50;;;;;;;4.97;4.47;;;;;;;23.00;74.76;98480.59;4151000;28;21016;-81
2023/07/09 00:17:53;;;;;;;5.30;3.87;;;;;;;22.99;74.69;98478.97;4157681;28;21208;-81
2023/07/09 00:19:57;;;;;;;4.93;3.60;;;;;;;22.96;74.27;98480.13;4152768;28;20633;-80
2023/07/09 00:22:00;;;;;;;4.97;4.40;;;;;;;22.93;74.58;98479.63;4156783;28;20641;-81
2023/07/09 00:24:04;;;;;;;6.10;4.33;;;;;;;22.89;74.74;98478.28;4135540;28;20747;-81
2023/07/09 00:26:09;;;;;;;4.83;4.20;;;;;;;22.85;75.05;98474.28;4154501;28;20649;-81
2023/07/09 00:28:14;;;;;;;5.77;4.00;;;;;;;22.83;75.21;98481.63;4149781;28;20638;-81
2023/07/09 00:30:19;;;;;;;4.57;3.70;;;;;;;22.80;75.41;98482.78;4156106;28;24974;-81
2023/07/09 00:32:24;;;;;;;4.30;3.40;;;;;;;22.77;75.01;98480.47;4157548;28;21112;-81
2023/07/09 00:34:28;;;;;;;6.30;4.63;;;;;;;22.74;75.44;98487.97;4152183;28;20636;-81
2023/07/09 00:36:32;;;;;;;5.43;3.87;;;;;;;22.70;75.93;98478.66;4155144;28;20664;-82
2023/07/09 00:38:38;;;;;;;4.83;3.43;;;;;;;22.68;76.07;98482.50;4141069;28;20645;-81
2023/07/09 00:40:48;;;;;;;5.20;4.30;;;;;;;22.66;76.17;98485.34;4136930;28;20708;-82
2023/07/09 00:42:54;;;;;;;8.30;4.50;;;;;;;22.64;75.49;98476.69;4153469;28;20704;-81
2023/07/09 00:44:57;;;;;;;5.90;4.67;;;;;;;22.64;75.82;98484.66;4151705;28;20656;-82
2023/07/09 00:47:26;;;;;;;6.37;4.03;;;;;;;22.60;75.81;98486.00;4158361;28;21259;-81
2023/07/09 00:49:30;;;;;;;5.93;3.77;;;;;;;22.58;76.87;98493.34;4154338;28;20651;-81
2023/07/09 00:51:34;;;;;;;4.17;3.60;;;;;;;22.57;76.03;98482.88;4154038;28;20663;-82
2023/07/09 00:53:39;;;;;;;5.37;4.10;;;;;;;22.53;76.07;98493.00;4138732;28;20733;-82
2023/07/09 00:55:44;;;;;;;11.00;4.20;;;;;;;22.50;76.09;98480.03;4156593;28;20722;-82
2023/07/09 00:57:55;;;;;;;6.10;4.03;;;;;;;22.47;75.96;98491.00;4152623;28;21236;-81
2023/07/09 01:00:07;;;;;;;6.43;3.93;;;;;;;22.45;76.99;98489.53;4153127;28;20675;-82
2023/07/09 01:02:12;;;;;;;4.90;3.70;;;;;;;22.40;76.31;98484.72;4154238;28;21724;-81
2023/07/09 01:04:21;;;;;;;6.53;4.10;;;;;;;22.38;76.44;98486.69;4137639;28;21298;-82
2023/07/09 01:06:32;;;;;;;6.87;4.10;;;;;;;22.34;76.65;98497.84;4138928;28;20694;-81
2023/07/09 01:08:38;;;;;;;5.63;4.47;;;;;;;22.33;76.90;98493.53;4131150;28;20650;-81
2023/07/09 01:10:41;;;;;;;5.03;3.43;;;;;;;22.33;76.83;98505.00;4156590;28;20624;-82
2023/07/09 01:12:46;;;;;;;4.70;4.10;;;;;;;22.32;76.81;98494.53;4153287;28;20639;-81
2023/07/09 01:14:51;;;;;;;5.50;4.43;;;;;;;22.31;76.73;98500.81;4138466;28;21191;-81
2023/07/09 01:16:59;;;;;;;5.00;3.90;;;;;;;22.26;77.00;98503.16;4140284;28;20653;-81
2023/07/09 01:19:04;;;;;;;5.37;4.00;;;;;;;22.19;76.56;98496.00;4150633;28;20633;-81
2023/07/09 01:21:15;;;;;;;5.83;4.03;;;;;;;22.13;76.95;98492.19;4155226;28;20729;-82
2023/07/09 01:23:19;;;;;;;7.03;4.40;;;;;;;22.10;76.34;98497.84;4153209;28;20631;-81
2023/07/09 01:25:23;;;;;;;6.33;4.30;;;;;;;22.02;76.99;98489.03;4156938;28;20704;-81
2023/07/09 01:27:29;;;;;;;5.47;4.07;;;;;;;21.98;77.72;98490.34;4142668;28;20682;-82
2023/07/09 01:29:34;;;;;;;6.67;4.60;;;;;;;21.96;77.80;98489.69;4140771;28;20653;-81
2023/07/09 01:31:37;;;;;;;5.10;4.10;;;;;;;21.93;78.32;98484.69;4151728;28;21050;-82
2023/07/09 01:33:41;;;;;;;4.87;3.97;;;;;;;21.91;77.55;98487.53;4130607;28;20642;-81
2023/07/09 01:35:46;;;;;;;5.80;3.83;;;;;;;21.91;78.29;98492.84;4148753;28;20665;-81
2023/07/09 01:37:51;;;;;;;6.20;3.97;;;;;;;21.90;78.60;98493.81;4139990;28;20638;-81
2023/07/09 01:39:55;;;;;;;4.97;4.03;;;;;;;21.91;78.32;98492.00;4155482;28;21087;-82
2023/07/09 01:41:59;;;;;;;6.20;4.30;;;;;;;21.90;78.09;98499.13;4140700;28;20667;-82
2023/07/09 01:44:04;;;;;;;5.60;4.60;;;;;;;21.88;77.52;98492.34;4156592;28;21204;-82
2023/07/09 01:46:08;;;;;;;6.03;3.83;;;;;;;21.86;77.99;98491.66;4135220;28;20624;-82
2023/07/09 01:48:15;;;;;;;4.67;3.90;;;;;;;21.84;77.83;98497.13;4154134;28;21328;-82
2023/07/09 01:50:19;;;;;;;5.63;3.80;;;;;;;21.79;78.26;98491.50;4154409;28;20629;-82
2023/07/09 01:52:23;;;;;;;6.53;4.20;;;;;;;21.75;78.84;98485.84;4141865;28;21501;-82
2023/07/09 01:54:29;;;;;;;4.60;3.57;;;;;;;21.72;78.49;98488.84;4157835;28;20774;-82
2023/07/09 01:56:32;;;;;;;6.37;3.87;;;;;;;21.69;78.15;98497.94;4173931;28;20655;-82
2023/07/09 01:58:36;;;;;;;5.43;4.43;;;;;;;21.68;77.94;98498.97;4153110;28;20634;-82
2023/07/09 02:00:41;;;;;;;7.67;4.67;;;;;;;21.67;78.63;98499.13;4159505;28;21019;-82
2023/07/09 02:02:50;;;;;;;5.87;4.10;;;;;;;21.65;77.92;98495.78;4154810;28;20646;-82
2023/07/09 02:04:56;;;;;;;5.40;4.30;;;;;;;21.64;78.15;98499.44;4155139;28;20711;-82
2023/07/09 02:07:00;;;;;;;5.30;4.20;;;;;;;21.61;78.93;98503.25;4154154;28;20631;-82
2023/07/09 02:09:04;;;;;;;4.33;3.87;;;;;;;21.59;79.18;98501.75;4155452;28;20748;-82
2023/07/09 02:11:08;;;;;;;5.27;4.10;;;;;;;21.55;78.85;98505.72;4141866;28;20657;-81
2023/07/09 02:13:12;;;;;;;6.50;4.30;;;;;;;21.51;78.67;98507.03;4156846;28;20636;-81
2023/07/09 02:15:17;;;;;;;5.40;4.47;;;;;;;21.48;79.19;98513.50;4154280;28;21064;-82
2023/07/09 02:17:20;;;;;;;4.33;3.93;;;;;;;21.44;79.44;98501.53;4153518;28;20663;-82
2023/07/09 02:19:24;;;;;;;4.93;4.23;;;;;;;21.43;79.79;98504.34;4151223;28;20667;-82
2023/07/09 02:21:29;;;;;;;5.50;4.20;;;;;;;21.42;79.35;98506.16;4148203;28;21203;-82
2023/07/09 02:23:32;;;;;;;4.53;4.03;;;;;;;21.42;79.50;98505.31;4144589;28;20664;-82
2023/07/09 02:25:36;;;;;;;5.50;3.90;;;;;;;21.40;79.05;98509.97;4153806;28;21200;-82
2023/07/09 02:27:40;;;;;;;6.00;4.00;;;;;;;21.35;80.25;98493.69;4153995;28;20636;-82
2023/07/09 02:29:44;;;;;;;4.07;3.60;;;;;;;21.33;80.14;98504.47;4155284;28;20655;-81
2023/07/09 02:31:49;;;;;;;5.10;4.40;;;;;;;21.30;80.28;98501.28;4154059;28;20682;-81
2023/07/09 02:33:52;;;;;;;4.87;4.33;;;;;;;21.27;79.72;98513.09;4140924;28;20629;-82
2023/07/09 02:35:56;;;;;;;10.20;4.03;;;;;;;21.26;80.38;98499.13;4141485;28;20632;-81
2023/07/09 02:38:00;;;;;;;5.57;4.20;;;;;;;21.23;79.29;98510.06;4158795;28;20681;-82
2023/07/09 02:40:05;;;;;;;5.07;3.80;;;;;;;21.21;79.51;98504.09;4156899;28;20632;-82
2023/07/09 02:42:09;;;;;;;5.13;4.03;;;;;;;21.21;79.41;98509.41;4140155;28;20647;-82
2023/07/09 02:44:15;;;;;;;5.10;4.37;;;;;;;21.19;80.45;98509.56;4144537;28;20662;-82
2023/07/09 02:46:19;;;;;;;5.57;4.03;;;;;;;21.16;79.78;98512.53;4169917;28;20640;-81
2023/07/09 02:48:22;;;;;;;5.20;4.30;;;;;;;21.15;80.76;98513.50;4146040;28;20643;-82
2023/07/09 02:50:25;;;;;;;4.80;4.30;;;;;;;21.13;80.15;98518.16;4140738;28;20645;-82
2023/07/09 02:52:29;;;;;;;5.40;4.00;;;;;;;21.12;81.21;98520.97;4156523;28;20706;-82
2023/07/09 02:54:32;;;;;;;4.50;3.57;;;;;;;21.11;79.78;98524.59;4143215;28;20700;-82
2023/07/09 02:56:36;;;;;;;5.00;3.70;;;;;;;21.08;79.74;98524.91;4154891;28;20662;-82
2023/07/09 02:58:39;;;;;;;5.63;3.97;;;;;;;21.06;81.01;98518.94;4154224;28;20658;-81
2023/07/09 03:00:52;;;;;;;4.63;3.77;;;;;;;21.04;81.02;98521.75;4141275;28;20635;-82
2023/07/09 03:02:56;;;;;;;4.23;3.60;;;;;;;21.01;79.69;98515.94;4152452;28;20725;-82
2023/07/09 03:05:00;;;;;;;5.20;3.67;;;;;;;21.01;80.85;98523.91;4149906;28;20771;-82
2023/07/09 03:07:03;;;;;;;4.20;3.50;;;;;;;21.01;81.08;98521.25;4159954;28;21234;-82
2023/07/09 03:09:06;;;;;;;5.47;4.00;;;;;;;20.98;79.98;98527.69;4153269;28;20641;-82
2023/07/09 03:11:11;;;;;;;6.37;4.30;;;;;;;20.95;80.08;98529.84;4150309;28;20672;-82
2023/07/09 03:13:15;;;;;;;5.33;4.10;;;;;;;20.92;80.15;98524.84;4167682;28;20645;-82
2023/07/09 03:15:18;;;;;;;5.77;4.60;;;;;;;20.90;80.63;98532.97;4167484;28;20674;-82
2023/07/09 03:17:23;;;;;;;5.90;4.00;;;;;;;20.88;80.35;98526.16;4158685;28;20668;-82
2023/07/09 03:19:27;;;;;;;5.23;3.90;;;;;;;20.86;80.19;98536.09;4157654;28;20675;-82
2023/07/09 03:21:31;;;;;;;5.93;3.90;;;;;;;20.84;80.55;98541.56;4152149;28;20633;-82
2023/07/09 03:23:34;;;;;;;5.90;4.10;;;;;;;20.84;80.58;98538.09;4158084;28;21027;-82
2023/07/09 03:25:41;;;;;;;5.30;4.20;;;;;;;20.84;81.59;98533.59;4155716;28;20645;-82
2023/07/09 03:27:48;;;;;;;4.27;3.60;;;;;;;20.82;80.55;98537.38;4149935;28;20675;-82
2023/07/09 03:29:51;;;;;;;5.23;4.03;;;;;;;20.79;80.63;98544.84;4154291;28;21172;-82
2023/07/09 03:31:55;;;;;;;4.80;3.67;;;;;;;20.77;81.59;98547.63;4168958;28;20637;-82
2023/07/09 03:33:59;;;;;;;4.10;3.70;;;;;;;20.70;79.71;98538.63;4147036;28;20630;-82
2023/07/09 03:36:04;;;;;;;6.50;4.03;;;;;;;20.64;80.94;98539.25;4137723;28;20640;-81
2023/07/09 03:38:09;;;;;;;5.10;4.03;;;;;;;20.57;81.38;98538.19;4152204;28;20676;-82
2023/07/09 03:40:20;;;;;;;7.37;4.40;;;;;;;20.48;82.08;98535.66;4152512;28;20643;-82
2023/07/09 03:42:24;;;;;;;5.13;3.80;;;;;;;20.38;82.26;98535.72;4150828;28;20649;-82
2023/07/09 03:44:27;;;;;;;5.17;4.10;;;;;;;20.35;81.35;98538.69;4152733;28;20639;-82
2023/07/09 03:46:31;;;;;;;5.73;4.70;;;;;;;20.35;81.26;98544.00;4133457;28;20676;-82
2023/07/09 03:48:34;;;;;;;6.50;4.40;;;;;;;20.36;83.40;98543.00;4149727;28;20975;-81
2023/07/09 03:50:39;;;;;;;5.60;4.20;;;;;;;20.36;82.18;98543.00;4151464;28;21090;-82
2023/07/09 03:52:43;;;;;;;4.90;3.87;;;;;;;20.38;83.41;98548.16;4150710;28;20646;-82
2023/07/09 03:54:46;;;;;;;5.20;4.00;;;;;;;20.41;82.08;98550.50;4153169;28;20686;-82
2023/07/09 03:56:49;;;;;;;7.03;3.93;;;;;;;20.44;83.59;98548.38;4150559;28;20643;-82
2023/07/09 03:58:52;;;;;;;5.50;4.00;;;;;;;20.47;82.22;98548.06;4151809;28;21232;-82
2023/07/09 04:00:56;;;;;;;4.67;3.70;;;;;;;20.49;83.30;98548.75;4155240;28;20851;-82
2023/07/09 04:02:59;;;;;;;6.70;4.50;;;;;;;20.51;82.28;98549.41;4155754;28;20649;-82
2023/07/09 04:05:02;;;;;;;5.00;4.23;;;;;;;20.53;82.32;98552.75;4149375;28;21005;-82
2023/07/09 04:07:07;;;;;;;5.47;4.47;;;;;;;20.55;83.29;98552.59;4134126;28;20644;-82
2023/07/09 04:09:10;;;;;;;6.37;4.20;;;;;;;20.55;82.66;98555.25;4148508;28;20743;-82
2023/07/09 04:11:13;;;;;;;6.60;4.03;;;;;;;20.55;82.73;98548.13;4158380;28;20635;-82
2023/07/09 04:13:17;;;;;;;5.57;4.10;;;;;;;20.57;83.26;98556.75;4155750;28;20630;-82
2023/07/09 04:15:20;;;;;;;5.80;3.60;;;;;;;20.59;82.66;98560.06;4150372;28;21264;-82
2023/07/09 04:17:26;;;;;;;5.80;3.93;;;;;;;20.60;82.79;98564.41;4154209;28;20664;-82
2023/07/09 04:19:29;;;;;;;5.70;3.70;;;;;;;20.62;82.92;98562.41;4152143;28;20701;-82
2023/07/09 04:21:32;;;;;;;6.40;3.87;;;;;;;20.64;82.30;98563.13;4152431;28;20686;-82
2023/07/09 04:23:37;;;;;;;5.90;4.40;;;;;;;20.67;82.31;98565.47;4154010;28;21094;-82
2023/07/09 04:25:40;;;;;;;6.50;4.40;;;;;;;20.70;81.62;98562.50;4152985;28;20697;-82
2023/07/09 04:27:43;;;;;;;5.40;4.23;;;;;;;20.73;83.41;98567.50;4139723;28;20629;-82
2023/07/09 04:29:48;;;;;;;4.87;4.00;;;;;;;20.75;82.90;98568.19;4155514;28;20765;-82
2023/07/09 04:31:51;;;;;;;4.87;3.83;;;;;;;20.77;82.13;98566.22;4151148;28;21474;-82
2023/07/09 04:33:54;;;;;;;5.40;4.07;;;;;;;20.81;81.56;98572.88;4155077;28;20635;-82
2023/07/09 04:35:58;;;;;;;5.77;4.23;;;;;;;20.84;82.40;98567.25;4154951;28;20735;-82
2023/07/09 04:38:01;;;;;;;4.90;3.90;;;;;;;20.88;81.16;98569.44;4152474;28;20647;-82
2023/07/09 04:40:10;;;;;;;4.50;3.90;;;;;;;20.91;81.86;98566.47;4152740;28;20652;-82
2023/07/09 04:42:15;;;;;;;6.17;4.07;;;;;;;20.97;80.72;98570.31;4152153;28;20638;-82
2023/07/09 04:44:18;;;;;;;5.13;4.33;;;;;;;21.00;81.07;98575.28;4153242;28;20727;-82
2023/07/09 04:46:21;;;;;;;5.80;4.90;;;;;;;21.04;80.20;98569.50;4152847;28;20690;-82
2023/07/09 04:48:24;;;;;;;5.53;4.40;;;;;;;21.09;81.27;98579.66;4152585;28;20643;-81
2023/07/09 04:50:28;;;;;;;8.30;4.90;;;;;;;21.14;81.04;98580.84;4153916;28;20639;-81
2023/07/09 04:52:31;;;;;;;5.30;4.80;;;;;;;21.20;81.41;98580.22;4156344;28;20670;-82
2023/07/09 04:54:35;;;;;;;5.27;3.97;;;;;;;21.24;80.27;98575.44;4153880;28;20642;-82
2023/07/09 04:56:39;;;;;;;5.20;4.20;;;;;;;21.27;79.38;98585.72;4162650;28;20632;-82
2023/07/09 04:58:42;;;;;;;5.20;4.33;;;;;;;21.31;79.71;98582.59;4154063;28;20660;-82
2023/07/09 05:00:46;;;;;;;4.77;4.23;;;;;;;21.31;79.31;98585.25;4156371;28;20718;-82
2023/07/09 05:02:49;;;;;;;4.33;3.73;;;;;;;21.36;80.03;98582.94;4153951;28;20979;-82
2023/07/09 05:04:52;;;;;;;9.00;4.50;;;;;;;21.38;79.63;98589.78;4155286;28;20675;-81
2023/07/09 05:06:57;;;;;;;5.20;4.07;;;;;;;21.44;79.79;98583.81;4160894;28;20674;-82
2023/07/09 05:09:00;;;;;;;4.50;4.00;;;;;;;21.51;80.56;98589.34;4155388;28;20635;-82
2023/07/09 05:11:03;;;;;;;5.10;4.10;;;;;;;21.56;79.64;98595.00;4155127;28;20777;-82
2023/07/09 05:13:08;;;;;;;10.00;4.20;;;;;;;21.61;79.53;98590.88;4160411;28;20652;-81
2023/07/09 05:15:12;;;;;;;6.17;4.67;;;;;;;21.69;79.58;98596.22;4155972;28;21065;-82
2023/07/09 05:17:15;;;;;;;5.87;4.33;;;;;;;21.75;79.35;98592.91;4153999;28;20633;-82
2023/07/09 05:19:20;;;;;;;4.43;4.03;;;;;;;21.83;80.49;98598.25;4154389;28;20658;-82
2023/07/09 05:21:23;;;;;;;6.10;4.50;;;;;;;21.91;78.78;98585.00;4143032;28;21352;-82
2023/07/09 05:23:26;;;;;;;5.10;4.40;;;;;;;21.98;78.99;98594.81;4150970;28;21235;-81
2023/07/09 05:25:29;;;;;;;4.90;4.23;;;;;;;22.07;78.63;98593.00;4156407;28;20669;-81
2023/07/09 05:27:33;;;;;;;5.67;4.03;;;;;;;22.15;78.98;98595.69;4152538;28;20668;-82
2023/07/09 05:29:37;;;;;;;6.00;4.60;;;;;;;22.23;78.12;98596.53;4157000;28;21200;-82
2023/07/09 05:31:41;;;;;;;5.63;4.40;;;;;;;22.32;77.95;98600.88;4158801;28;20653;-82
2023/07/09 05:33:45;;;;;;;5.03;4.50;;;;;;;22.39;77.71;98597.41;4155884;28;21205;-81
2023/07/09 05:35:48;;;;;;;5.40;4.07;;;;;;;22.50;77.21;98598.91;4158099;28;20629;-82
2023/07/09 05:37:55;;;;;;;4.63;4.17;;;;;;;22.60;77.86;98597.72;4128735;28;20684;-82
2023/07/09 05:39:58;;;;;;;5.47;4.33;;;;;;;22.75;77.57;98602.22;4149884;28;20662;-80
2023/07/09 05:42:02;;;;;;;4.93;4.43;;;;;;;22.89;76.96;98604.19;4156934;28;21012;-80
2023/07/09 05:44:05;;;;;;;7.30;6.13;;;;;;;23.06;77.18;98607.69;4152346;28;20654;-81
2023/07/09 05:46:09;;;;;;;5.60;4.93;;;;;;;23.23;76.49;98607.50;4148073;28;20674;-80
2023/07/09 05:48:12;;;;;;;4.87;4.10;;;;;;;23.49;75.36;98614.22;4150843;28;20644;-80
2023/07/09 05:50:16;;;;;;;4.87;4.00;;;;;;;23.83;75.16;98614.75;4154122;28;20714;-80
2023/07/09 05:52:21;;;;;;;4.83;4.33;;;;;;;24.17;73.97;98616.06;4144855;28;20740;-81
2023/07/09 05:54:24;;;;;;;6.30;5.17;;;;;;;24.48;73.29;98609.72;4131021;28;20671;-81
2023/07/09 05:56:28;;;;;;;5.83;4.17;;;;;;;24.81;72.36;98617.28;4133381;28;20834;-80
2023/07/09 05:58:32;;;;;;;5.60;4.20;;;;;;;25.10;71.49;98621.91;4151518;28;20661;-80
2023/07/09 06:00:37;;;;;;;7.50;4.00;;;;;;;25.35;70.37;98619.63;4155855;28;20640;-80
2023/07/09 06:02:42;;;;;;;4.80;4.00;;;;;;;25.62;71.12;98625.16;4157439;28;21241;-81
2023/07/09 06:04:46;;;;;;;4.53;4.00;;;;;;;25.89;69.74;98634.34;4135915;28;20668;-80
2023/07/09 06:06:49;;;;;;;5.27;4.10;;;;;;;26.09;69.22;98622.91;4146518;28;20652;-80
2023/07/09 06:08:52;;;;;;;6.60;5.10;;;;;;;26.35;68.79;98625.91;4152165;28;20720;-80
2023/07/09 06:10:57;;;;;;;6.50;4.40;;;;;;;26.55;67.18;98625.06;4130419;28;21240;-80
2023/07/09 06:13:00;;;;;;;5.37;4.33;;;;;;;26.73;67.14;98631.66;4155193;28;21036;-80
2023/07/09 06:15:04;;;;;;;5.47;4.70;;;;;;;27.00;67.22;98632.72;4160387;28;20692;-81
2023/07/09 06:17:08;;;;;;;7.53;4.37;;;;;;;27.36;67.41;98635.06;4158322;28;20666;-80
2023/07/09 06:19:13;;;;;;;5.03;4.30;;;;;;;27.68;66.55;98638.00;4158483;28;20697;-80
2023/07/09 06:21:16;;;;;;;5.90;4.80;;;;;;;27.95;66.02;98639.78;4152159;28;20660;-81
2023/07/09 06:23:19;;;;;;;5.30;4.20;;;;;;;28.21;65.34;98634.53;4128195;28;20654;-80
2023/07/09 06:25:23;;;;;;;4.90;4.40;;;;;;;28.43;65.04;98644.09;4156204;28;20630;-80
2023/07/09 06:27:26;;;;;;;4.77;4.10;;;;;;;28.62;64.02;98644.16;4152282;28;20629;-80
2023/07/09 06:29:29;;;;;;;5.97;4.27;;;;;;;28.79;63.93;98645.44;4144610;28;20745;-80
2023/07/09 06:31:33;;;;;;;4.77;4.07;;;;;;;28.81;63.29;98638.03;4151352;28;20626;-80
2023/07/09 06:33:38;;;;;;;4.60;4.10;;;;;;;28.86;62.44;98635.53;4145921;28;20642;-81
2023/07/09 06:35:49;;;;;;;5.73;4.30;;;;;;;29.01;62.53;98634.28;4149625;28;20633;-81
2023/07/09 06:37:52;;;;;;;7.23;4.30;;;;;;;29.18;63.01;98638.22;4157477;28;20636;-80
2023/07/09 06:39:55;;;;;;;7.37;4.40;;;;;;;29.43;63.04;98639.28;4153003;28;20790;-80
2023/07/09 06:41:58;;;;;;;6.83;3.90;;;;;;;29.69;62.56;98642.72;4145404;28;20634;-80
2023/07/09 06:44:13;;;;;;;5.00;4.20;;;;;;;29.86;61.88;98647.47;4132353;28;20786;-81
2023/07/09 06:46:19;;;;;;;6.50;4.70;;;;;;;30.07;61.51;98644.47;4165522;28;20675;-81
2023/07/09 06:48:24;;;;;;;4.87;4.17;;;;;;;30.20;61.17;98647.13;4152055;28;20626;-80
2023/07/09 06:50:27;;;;;;;6.03;4.53;;;;;;;30.21;60.79;98643.41;4153762;28;20764;-80
2023/07/09 06:52:32;;;;;;;6.40;4.00;;;;;;;30.29;61.23;98641.28;4154793;28;20679;-80
2023/07/09 06:54:35;;;;;;;5.53;4.37;;;;;;;30.48;60.32;98643.09;4154077;28;21067;-81
2023/07/09 06:56:38;;;;;;;5.40;3.87;;;;;;;30.67;60.29;98645.66;4139533;28;21188;-80
2023/07/09 06:58:41;;;;;;;5.43;4.20;;;;;;;30.84;59.87;98635.16;4159516;28;20723;-80
2023/07/09 07:00:44;;;;;;;6.03;4.10;;;;;;;30.94;58.92;98642.59;4154781;28;20660;-80
2023/07/09 07:02:48;;;;;;;5.20;4.57;;;;;;;30.97;59.13;98639.47;4148693;28;20644;-80
2023/07/09 07:04:51;;;;;;;6.60;4.43;;;;;;;31.13;58.77;98644.31;4149726;28;21084;-81
2023/07/09 07:06:56;;;;;;;6.30;4.20;;;;;;;31.29;58.22;98649.16;4155508;28;21052;-80
2023/07/09 07:09:01;;;;;;;10.03;4.97;;;;;;;31.50;59.00;98646.91;4151467;28;20718;-80
2023/07/09 07:11:06;;;;;;;5.70;3.97;;;;;;;31.74;57.77;98648.75;4156016;28;20657;-80
2023/07/09 07:13:10;;;;;;;5.50;4.40;;;;;;;31.96;58.75;98647.25;4160391;28;21031;-80
2023/07/09 07:15:15;;;;;;;4.60;3.90;;;;;;;32.23;57.24;98648.59;4153340;28;20653;-81
2023/07/09 07:17:18;;;;;;;5.13;4.10;;;;;;;32.41;56.80;98646.69;4140275;28;20625;-80
2023/07/09 07:19:22;;;;;;;5.07;3.77;;;;;;;32.53;56.27;98651.13;4136691;28;20684;-80
2023/07/09 07:21:25;;;;;;;4.67;3.80;;;;;;;32.67;56.61;98640.94;4146741;28;21217;-80
2023/07/09 07:23:29;;;;;;;5.13;4.00;;;;;;;32.69;55.82;98636.16;4154811;28;20629;-80
2023/07/09 07:25:34;;;;;;;5.20;3.67;;;;;;;32.71;57.35;98637.56;4146665;28;21189;-81
2023/07/09 07:27:38;;;;;;;5.40;3.67;;;;;;;32.94;55.63;98634.94;4141356;28;20630;-81
2023/07/09 07:29:41;;;;;;;5.33;4.53;;;;;;;33.17;54.22;98640.38;4153390;28;20729;-80
2023/07/09 07:31:45;;;;;;;6.00;4.07;;;;;;;33.34;53.36;98640.28;4139959;28;20677;-80
2023/07/09 07:33:48;;;;;;;5.47;3.87;;;;;;;33.25;54.04;98630.03;4154080;28;20669;-81
2023/07/09 07:35:52;;;;;;;5.37;4.00;;;;;;;33.21;53.88;98623.44;4151914;28;21007;-81
2023/07/09 07:38:15;;;;;;;5.40;3.50;;;;;;;33.38;54.89;98630.66;4136607;28;21033;-81
2023/07/09 07:40:18;;;;;;;5.40;3.67;;;;;;;33.63;53.70;98625.81;4154289;28;20657;-81
2023/07/09 07:42:23;;;;;;;4.73;3.80;;;;;;;33.81;53.79;98627.59;4155280;28;20613;-80
2023/07/09 07:44:26;;;;;;;4.40;3.30;;;;;;;33.93;54.25;98624.63;4136553;28;20640;-81
2023/07/09 07:46:32;;;;;;;5.90;4.13;;;;;;;34.09;53.72;98623.09;4158054;28;20702;-81
2023/07/09 07:48:35;;;;;;;5.47;3.77;;;;;;;34.29;53.26;98623.50;4138526;28;20641;-81
2023/07/09 07:50:38;;;;;;;4.00;3.43;;;;;;;34.34;52.71;98619.81;4150497;28;20637;-81
2023/07/09 07:52:41;;;;;;;4.50;3.97;;;;;;;34.42;52.79;98619.47;4141724;28;20638;-81
2023/07/09 07:54:44;;;;;;;4.67;4.17;;;;;;;34.53;52.84;98618.59;4153199;28;20634;-81
2023/07/09 07:56:48;;;;;;;5.90;3.83;;;;;;;34.64;52.94;98614.16;4142400;28;20630;-81
2023/07/09 07:58:51;;;;;;;5.73;4.23;;;;;;;34.77;52.17;98616.59;4155675;28;20642;-81
2023/07/09 08:00:58;;;;;;;5.13;4.20;;;;;;;34.83;52.41;98611.00;4155117;28;20692;-81
2023/07/09 08:03:02;;;;;;;4.73;4.20;;;;;;;35.01;53.31;98617.03;4153692;28;20658;-80
2023/07/09 08:05:06;;;;;;;4.93;4.20;;;;;;;35.05;51.48;98618.22;4146530;28;20662;-81
2023/07/09 08:07:10;;;;;;;4.63;3.87;;;;;;;35.06;52.13;98610.88;4143725;28;20630;-81
2023/07/09 08:09:13;;;;;;;5.10;3.83;;;;;;;35.15;50.40;98612.13;4152946;28;20635;-81
2023/07/09 08:11:17;;;;;;;9.43;4.23;;;;;;;35.10;50.95;98610.13;4153542;28;20725;-81
2023/07/09 08:13:20;;;;;;;6.40;4.00;;;;;;;35.20;51.30;98604.03;4144600;28;21025;-81
2023/07/09 08:15:25;;;;;;;4.20;3.63;;;;;;;35.27;49.99;98597.38;4159234;28;21113;-81
2023/07/09 08:17:28;;;;;;;4.10;3.13;;;;;;;35.42;51.07;98605.78;4142964;28;20654;-81
2023/07/09 08:19:32;;;;;;;5.30;3.93;;;;;;;35.56;50.83;98607.91;4150511;28;20637;-80
2023/07/09 08:21:35;;;;;;;6.90;4.07;;;;;;;35.66;50.27;98609.94;4157859;28;20692;-81
2023/07/09 08:23:38;;;;;;;4.33;3.70;;;;;;;35.81;50.73;98602.84;4160756;28;20732;-80
2023/07/09 08:25:42;;;;;;;5.87;3.60;;;;;;;35.92;51.60;98612.78;4125985;28;20642;-80
2023/07/09 08:27:45;;;;;;;3.90;3.27;;;;;;;35.97;49.90;98610.97;4155282;28;21044;-81
2023/07/09 08:29:48;;;;;;;4.93;3.80;;;;;;;35.93;49.32;98604.38;4148773;28;20729;-80
2023/07/09 08:31:53;;;;;;;3.83;3.40;;;;;;;35.99;50.47;98616.13;4153230;28;20642;-81
2023/07/09 08:33:56;;;;;;;4.70;3.70;;;;;;;36.12;50.21;98603.00;4158783;28;20646;-80
2023/07/09 08:36:00;;;;;;;4.10;3.70;;;;;;;36.20;50.03;98596.28;4135631;28;21027;-81
2023/07/09 08:38:03;;;;;;;5.37;3.93;;;;;;;36.20;49.36;98604.44;4145173;28;20680;-81
2023/07/09 08:40:12;;;;;;;5.20;3.80;;;;;;;36.16;49.05;98593.25;4127952;28;20649;-80
2023/07/09 08:42:19;;;;;;;4.40;4.00;;;;;;;36.19;49.48;98592.75;4134779;28;21238;-80
2023/07/09 08:44:32;;;;;;;4.40;3.80;;;;;;;36.15;50.20;98582.66;4160136;28;20695;-80
2023/07/09 08:46:43;;;;;;;4.83;3.80;;;;;;;36.16;50.06;98586.97;4156271;28;20647;-81
2023/07/09 08:48:49;;;;;;;4.50;4.07;;;;;;;36.24;50.04;98592.81;4151779;28;20630;-81
2023/07/09 08:50:56;;;;;;;4.40;3.90;;;;;;;36.29;49.91;98590.97;4156082;28;21243;-81
2023/07/09 08:52:59;;;;;;;3.50;3.20;;;;;;;36.38;49.76;98588.63;4135837;28;20738;-81
2023/07/09 08:55:07;;;;;;;3.63;3.33;;;;;;;36.54;51.15;98601.34;4135187;28;20641;-81
2023/07/09 08:57:18;;;;;;;4.17;3.70;;;;;;;36.62;49.97;98590.78;4159540;28;20667;-81
2023/07/09 08:59:22;;;;;;;3.37;3.07;;;;;;;36.68;49.55;98599.84;4155378;28;20633;-81
2023/07/09 09:01:28;;;;;;;4.50;3.50;;;;;;;36.68;49.44;98591.69;4147238;28;20658;-81
2023/07/09 09:03:37;;;;;;;5.07;4.10;;;;;;;36.74;48.42;98595.03;4158537;28;21663;-81
2023/07/09 09:05:44;;;;;;;5.10;3.80;;;;;;;36.61;47.56;98597.34;4140345;28;21229;-81
2023/07/09 09:07:53;;;;;;;4.50;3.83;;;;;;;36.58;48.22;98591.56;4156320;28;20728;-81
2023/07/09 09:09:59;;;;;;;4.80;3.60;;;;;;;36.63;48.97;98595.16;4147714;28;20639;-81
2023/07/09 09:12:12;;;;;;;3.77;3.37;;;;;;;36.68;48.38;98597.13;4171254;28;20664;-81
2023/07/09 09:14:27;;;;;;;6.00;3.77;;;;;;;36.70;47.55;98600.41;4141469;28;20688;-81
2023/07/09 09:16:33;;;;;;;4.80;3.60;;;;;;;36.69;48.18;98593.28;4152882;28;20995;-81
2023/07/09 09:18:42;;;;;;;3.67;3.27;;;;;;;36.68;48.17;98592.50;4149122;28;21194;-81
2023/07/09 09:20:49;;;;;;;4.50;3.80;;;;;;;36.69;48.36;98588.69;4153231;28;20680;-81
2023/07/09 09:22:58;;;;;;;4.30;3.30;;;;;;;36.70;48.68;98586.78;4147430;28;20637;-81
2023/07/09 09:25:05;;;;;;;4.63;4.00;;;;;;;36.77;49.66;98593.69;4155892;28;20639;-81
2023/07/09 09:27:09;;;;;;;4.30;3.40;;;;;;;36.75;46.96;98591.22;4158677;28;20644;-81
2023/07/09 09:29:14;;;;;;;4.27;3.30;;;;;;;36.80;47.61;98590.47;4156552;28;20756;-81
2023/07/09 09:31:18;;;;;;;3.60;3.30;;;;;;;36.84;47.68;98583.44;4136734;28;20733;-81
2023/07/09 09:33:22;;;;;;;3.80;3.30;;;;;;;36.81;47.23;98576.59;4171760;28;20698;-81
2023/07/09 09:35:30;;;;;;;7.70;3.80;;;;;;;36.91;47.85;98581.28;4134935;28;20650;-81
2023/07/09 09:37:35;;;;;;;3.70;3.27;;;;;;;36.98;47.38;98580.00;4155512;28;20630;-81
2023/07/09 09:39:39;;;;;;;6.13;3.50;;;;;;;37.07;47.53;98583.88;4150152;28;20627;-81
2023/07/09 09:41:45;;;;;;;4.90;3.73;;;;;;;37.09;47.84;98586.34;4160183;28;20657;-81
2023/07/09 09:43:49;;;;;;;4.50;3.80;;;;;;;37.11;46.25;98576.00;4160300;28;21201;-81
2023/07/09 09:45:53;;;;;;;5.23;4.00;;;;;;;36.97;46.41;98582.97;4145428;28;21277;-81
2023/07/09 09:48:00;;;;;;;3.90;3.50;;;;;;;36.96;46.63;98578.63;4161760;28;21231;-81